sensor_id;sensor_type;location;lat;lon;timestamp;temperature;humidity
48007;DHT22;33771;48.180;11.400;2022-11-15T00:01:35;3.20;99.90
48007;DHT22;33771;48.180;11.400;2022-11-15T00:04:04;3.20;99.90
48007;DHT22;33771;48.180;11.400;2022-11-15T00:06:30;3.20;99.90
48007;DHT22;33771;48.180;11.400;2022-11-15T00:08:59;3.20;99.90
48007;DHT22;33771;48.180;11.400;2022-11-15T00:11:25;3.20;99.90
48007;DHT22;33771;48.180;11.400;2022-11-15T00:13:54;3.20;99.90
48007;DHT22;33771;48.180;11.400;2022-11-15T00:16:23;3.20;99.90
48007;DHT22;33771;48.180;11.400;2022-11-15T00:18:49;3.20;99.90
48007;DHT22;33771;48.180;11.400;2022-11-15T00:21:15;3.20;99.90
48007;DHT22;33771;48.180;11.400;2022-11-15T00:23:41;3.20;99.90
48007;DHT22;33771;48.180;11.400;2022-11-15T00:26:11;3.10;99.90
48007;DHT22;33771;48.180;11.400;2022-11-15T00:28:37;3.10;99.90
48007;DHT22;33771;48.180;11.400;2022-11-15T00:31:05;3.10;99.90
48007;DHT22;33771;48.180;11.400;2022-11-15T00:33:32;3.10;99.90
48007;DHT22;33771;48.180;11.400;2022-11-15T00:36:03;3.00;99.90
48007;DHT22;33771;48.180;11.400;2022-11-15T00:38:37;3.00;99.90
48007;DHT22;33771;48.180;11.400;2022-11-15T00:41:04;3.00;99.90
48007;DHT22;33771;48.180;11.400;2022-11-15T00:43:30;3.10;99.90
48007;DHT22;33771;48.180;11.400;2022-11-15T00:45:55;3.10;99.90
48007;DHT22;33771;48.180;11.400;2022-11-15T00:48:21;3.10;99.90
48007;DHT22;33771;48.180;11.400;2022-11-15T00:50:48;3.10;99.90
48007;DHT22;33771;48.180;11.400;2022-11-15T00:53:13;3.00;99.90
48007;DHT22;33771;48.180;11.400;2022-11-15T00:55:39;3.00;99.90
48007;DHT22;33771;48.180;11.400;2022-11-15T00:58:05;2.90;99.90
48007;DHT22;33771;48.180;11.400;2022-11-15T01:00:30;2.90;99.90
48007;DHT22;33771;48.180;11.400;2022-11-15T01:02:56;2.90;99.90
48007;DHT22;33771;48.180;11.400;2022-11-15T01:05:22;2.90;99.90
48007;DHT22;33771;48.180;11.400;2022-11-15T01:07:53;2.90;99.90
48007;DHT22;33771;48.180;11.400;2022-11-15T01:10:19;2.90;99.90
48007;DHT22;33771;48.180;11.400;2022-11-15T01:12:46;2.90;99.90
48007;DHT22;33771;48.180;11.400;2022-11-15T01:15:11;2.90;99.90
48007;DHT22;33771;48.180;11.400;2022-11-15T01:17:37;2.90;99.90
48007;DHT22;33771;48.180;11.400;2022-11-15T01:20:03;2.90;99.90
48007;DHT22;33771;48.180;11.400;2022-11-15T01:22:29;2.90;99.90
48007;DHT22;33771;48.180;11.400;2022-11-15T01:24:55;2.80;99.90
48007;DHT22;33771;48.180;11.400;2022-11-15T01:27:20;2.80;99.90
48007;DHT22;33771;48.180;11.400;2022-11-15T01:29:46;2.70;99.90
48007;DHT22;33771;48.180;11.400;2022-11-15T01:32:11;2.70;99.90
48007;DHT22;33771;48.180;11.400;2022-11-15T01:34:37;2.60;99.90
48007;DHT22;33771;48.180;11.400;2022-11-15T01:37:03;2.50;99.90
48007;DHT22;33771;48.180;11.400;2022-11-15T01:39:28;2.50;99.90
48007;DHT22;33771;48.180;11.400;2022-11-15T01:41:55;2.50;99.90
48007;DHT22;33771;48.180;11.400;2022-11-15T01:44:40;2.60;99.90
48007;DHT22;33771;48.180;11.400;2022-11-15T01:47:17;2.60;99.90
48007;DHT22;33771;48.180;11.400;2022-11-15T01:49:54;2.60;99.90
48007;DHT22;33771;48.180;11.400;2022-11-15T01:52:23;2.60;99.90
48007;DHT22;33771;48.180;11.400;2022-11-15T01:54:54;2.60;99.90
48007;DHT22;33771;48.180;11.400;2022-11-15T01:57:22;2.50;99.90
48007;DHT22;33771;48.180;11.400;2022-11-15T01:59:48;2.50;99.90
48007;DHT22;33771;48.180;11.400;2022-11-15T02:02:13;2.50;99.90
48007;DHT22;33771;48.180;11.400;2022-11-15T02:04:42;2.50;99.90
48007;DHT22;33771;48.180;11.400;2022-11-15T02:07:11;2.50;99.90
48007;DHT22;33771;48.180;11.400;2022-11-15T02:09:37;2.50;99.90
48007;DHT22;33771;48.180;11.400;2022-11-15T02:12:04;2.50;99.90
48007;DHT22;33771;48.180;11.400;2022-11-15T02:14:31;2.50;99.90
48007;DHT22;33771;48.180;11.400;2022-11-15T02:27:54;2.50;99.90
48007;DHT22;33771;48.180;11.400;2022-11-15T02:36:00;2.40;99.90
48007;DHT22;33771;48.180;11.400;2022-11-15T02:38:42;2.40;99.90
48007;DHT22;33771;48.180;11.400;2022-11-15T02:41:13;2.40;99.90
48007;DHT22;33771;48.180;11.400;2022-11-15T02:44:35;2.40;99.90
48007;DHT22;33771;48.180;11.400;2022-11-15T02:46:50;2.50;99.90
48007;DHT22;33771;48.180;11.400;2022-11-15T02:49:37;2.50;99.90
48007;DHT22;33771;48.180;11.400;2022-11-15T02:52:03;2.40;99.90
48007;DHT22;33771;48.180;11.400;2022-11-15T02:54:30;2.40;99.90
48007;DHT22;33771;48.180;11.400;2022-11-15T02:57:04;2.40;99.90
48007;DHT22;33771;48.180;11.400;2022-11-15T02:59:50;2.30;99.90
48007;DHT22;33771;48.180;11.400;2022-11-15T03:07:58;2.30;99.90
48007;DHT22;33771;48.180;11.400;2022-11-15T03:10:32;2.30;99.90
48007;DHT22;33771;48.180;11.400;2022-11-15T03:16:09;2.20;99.90
48007;DHT22;33771;48.180;11.400;2022-11-15T03:18:44;2.20;99.90
48007;DHT22;33771;48.180;11.400;2022-11-15T03:21:11;2.20;99.90
48007;DHT22;33771;48.180;11.400;2022-11-15T03:23:39;2.20;99.90
48007;DHT22;33771;48.180;11.400;2022-11-15T03:26:07;2.10;99.90
48007;DHT22;33771;48.180;11.400;2022-11-15T03:28:38;2.10;99.90
48007;DHT22;33771;48.180;11.400;2022-11-15T03:31:06;2.10;99.90
48007;DHT22;33771;48.180;11.400;2022-11-15T03:33:55;2.10;99.90
48007;DHT22;33771;48.180;11.400;2022-11-15T03:36:23;2.10;99.90
48007;DHT22;33771;48.180;11.400;2022-11-15T03:38:54;2.10;99.90
48007;DHT22;33771;48.180;11.400;2022-11-15T03:41:37;2.10;99.90
48007;DHT22;33771;48.180;11.400;2022-11-15T03:46:46;2.10;99.90
48007;DHT22;33771;48.180;11.400;2022-11-15T03:49:27;2.10;99.90
48007;DHT22;33771;48.180;11.400;2022-11-15T03:51:57;2.00;99.90
48007;DHT22;33771;48.180;11.400;2022-11-15T03:54:23;2.00;99.90
48007;DHT22;33771;48.180;11.400;2022-11-15T03:56:48;2.00;99.90
48007;DHT22;33771;48.180;11.400;2022-11-15T03:59:14;2.00;99.90
48007;DHT22;33771;48.180;11.400;2022-11-15T04:01:39;2.00;99.90
48007;DHT22;33771;48.180;11.400;2022-11-15T04:04:05;2.00;99.90
48007;DHT22;33771;48.180;11.400;2022-11-15T04:06:30;1.90;99.90
48007;DHT22;33771;48.180;11.400;2022-11-15T04:08:56;1.90;99.90
48007;DHT22;33771;48.180;11.400;2022-11-15T04:11:22;1.90;99.90
48007;DHT22;33771;48.180;11.400;2022-11-15T04:13:47;1.80;99.90
48007;DHT22;33771;48.180;11.400;2022-11-15T04:16:13;1.80;99.90
48007;DHT22;33771;48.180;11.400;2022-11-15T04:18:38;1.80;99.90
48007;DHT22;33771;48.180;11.400;2022-11-15T04:21:04;1.80;99.90
48007;DHT22;33771;48.180;11.400;2022-11-15T04:23:48;1.80;99.90
48007;DHT22;33771;48.180;11.400;2022-11-15T04:26:32;1.70;99.90
48007;DHT22;33771;48.180;11.400;2022-11-15T04:28:58;1.70;99.90
48007;DHT22;33771;48.180;11.400;2022-11-15T04:31:42;1.70;99.90
48007;DHT22;33771;48.180;11.400;2022-11-15T04:34:08;1.60;99.90
48007;DHT22;33771;48.180;11.400;2022-11-15T04:36:33;1.50;99.90
48007;DHT22;33771;48.180;11.400;2022-11-15T04:39:18;1.50;99.90
48007;DHT22;33771;48.180;11.400;2022-11-15T04:41:43;1.50;99.90
48007;DHT22;33771;48.180;11.400;2022-11-15T04:44:09;1.50;99.90
48007;DHT22;33771;48.180;11.400;2022-11-15T04:46:35;1.40;99.90
48007;DHT22;33771;48.180;11.400;2022-11-15T04:49:00;1.40;99.90
48007;DHT22;33771;48.180;11.400;2022-11-15T04:51:26;1.40;99.90
48007;DHT22;33771;48.180;11.400;2022-11-15T04:53:52;1.40;99.90
48007;DHT22;33771;48.180;11.400;2022-11-15T04:56:17;1.40;99.90
48007;DHT22;33771;48.180;11.400;2022-11-15T04:58:43;1.50;99.90
48007;DHT22;33771;48.180;11.400;2022-11-15T05:01:10;1.50;99.90
48007;DHT22;33771;48.180;11.400;2022-11-15T05:03:37;1.50;99.90
48007;DHT22;33771;48.180;11.400;2022-11-15T05:06:22;1.60;99.90
48007;DHT22;33771;48.180;11.400;2022-11-15T05:08:47;1.60;99.90
48007;DHT22;33771;48.180;11.400;2022-11-15T05:11:13;1.60;99.90
48007;DHT22;33771;48.180;11.400;2022-11-15T05:13:39;1.60;99.90
48007;DHT22;33771;48.180;11.400;2022-11-15T05:16:04;1.60;99.90
48007;DHT22;33771;48.180;11.400;2022-11-15T05:18:30;1.50;99.90
48007;DHT22;33771;48.180;11.400;2022-11-15T05:20:55;1.50;99.90
48007;DHT22;33771;48.180;11.400;2022-11-15T05:23:24;1.40;99.90
48007;DHT22;33771;48.180;11.400;2022-11-15T05:25:49;1.40;99.90
48007;DHT22;33771;48.180;11.400;2022-11-15T05:28:15;1.30;99.90
48007;DHT22;33771;48.180;11.400;2022-11-15T05:30:40;1.30;99.90
48007;DHT22;33771;48.180;11.400;2022-11-15T05:33:06;1.30;99.90
48007;DHT22;33771;48.180;11.400;2022-11-15T05:35:37;1.20;99.90
48007;DHT22;33771;48.180;11.400;2022-11-15T05:38:04;1.20;99.90
48007;DHT22;33771;48.180;11.400;2022-11-15T05:40:31;1.20;99.90
48007;DHT22;33771;48.180;11.400;2022-11-15T05:42:57;1.20;99.90
48007;DHT22;33771;48.180;11.400;2022-11-15T05:45:25;1.20;99.90
48007;DHT22;33771;48.180;11.400;2022-11-15T05:47:54;1.20;99.90
48007;DHT22;33771;48.180;11.400;2022-11-15T05:50:22;1.20;99.90
48007;DHT22;33771;48.180;11.400;2022-11-15T05:52:48;1.20;99.90
48007;DHT22;33771;48.180;11.400;2022-11-15T05:55:14;1.20;99.90
48007;DHT22;33771;48.180;11.400;2022-11-15T05:57:40;1.20;99.90
48007;DHT22;33771;48.180;11.400;2022-11-15T06:00:06;1.20;99.90
48007;DHT22;33771;48.180;11.400;2022-11-15T06:02:33;1.20;99.90
48007;DHT22;33771;48.180;11.400;2022-11-15T06:04:59;1.10;99.90
48007;DHT22;33771;48.180;11.400;2022-11-15T06:07:24;1.10;99.90
48007;DHT22;33771;48.180;11.400;2022-11-15T06:09:50;1.10;99.90
48007;DHT22;33771;48.180;11.400;2022-11-15T06:12:18;1.10;99.90
48007;DHT22;33771;48.180;11.400;2022-11-15T06:14:43;1.20;99.90
48007;DHT22;33771;48.180;11.400;2022-11-15T06:17:09;1.20;99.90
48007;DHT22;33771;48.180;11.400;2022-11-15T06:19:34;1.20;99.90
48007;DHT22;33771;48.180;11.400;2022-11-15T06:22:00;1.20;99.90
48007;DHT22;33771;48.180;11.400;2022-11-15T06:24:25;1.20;99.90
48007;DHT22;33771;48.180;11.400;2022-11-15T06:26:51;1.20;99.90
48007;DHT22;33771;48.180;11.400;2022-11-15T06:29:17;1.10;99.90
48007;DHT22;33771;48.180;11.400;2022-11-15T06:31:43;1.20;99.90
48007;DHT22;33771;48.180;11.400;2022-11-15T06:34:08;1.10;99.90
48007;DHT22;33771;48.180;11.400;2022-11-15T06:36:35;1.10;99.90
48007;DHT22;33771;48.180;11.400;2022-11-15T06:39:02;1.10;99.90
48007;DHT22;33771;48.180;11.400;2022-11-15T06:41:28;1.10;99.90
48007;DHT22;33771;48.180;11.400;2022-11-15T06:43:53;1.10;99.90
48007;DHT22;33771;48.180;11.400;2022-11-15T06:46:19;1.10;99.90
48007;DHT22;33771;48.180;11.400;2022-11-15T06:48:44;1.10;99.90
48007;DHT22;33771;48.180;11.400;2022-11-15T06:51:10;1.10;99.90
48007;DHT22;33771;48.180;11.400;2022-11-15T06:53:35;1.10;99.90
48007;DHT22;33771;48.180;11.400;2022-11-15T06:56:03;1.10;99.90
48007;DHT22;33771;48.180;11.400;2022-11-15T06:58:29;1.10;99.90
48007;DHT22;33771;48.180;11.400;2022-11-15T07:01:01;1.20;99.90
48007;DHT22;33771;48.180;11.400;2022-11-15T07:03:27;1.20;99.90
48007;DHT22;33771;48.180;11.400;2022-11-15T07:05:54;1.20;99.90
48007;DHT22;33771;48.180;11.400;2022-11-15T07:08:20;1.20;99.90
48007;DHT22;33771;48.180;11.400;2022-11-15T07:10:46;1.20;99.90
48007;DHT22;33771;48.180;11.400;2022-11-15T07:13:12;1.30;99.90
48007;DHT22;33771;48.180;11.400;2022-11-15T07:15:37;1.30;99.90
48007;DHT22;33771;48.180;11.400;2022-11-15T07:18:03;1.30;99.90
48007;DHT22;33771;48.180;11.400;2022-11-15T07:20:29;1.40;99.90
48007;DHT22;33771;48.180;11.400;2022-11-15T07:23:02;1.40;99.90
48007;DHT22;33771;48.180;11.400;2022-11-15T07:25:28;1.50;99.90
48007;DHT22;33771;48.180;11.400;2022-11-15T07:27:58;1.50;99.90
48007;DHT22;33771;48.180;11.400;2022-11-15T07:30:24;1.60;99.90
48007;DHT22;33771;48.180;11.400;2022-11-15T07:32:58;1.60;99.90
48007;DHT22;33771;48.180;11.400;2022-11-15T07:35:25;1.70;99.90
48007;DHT22;33771;48.180;11.400;2022-11-15T07:37:58;1.70;99.90
48007;DHT22;33771;48.180;11.400;2022-11-15T07:40:25;1.80;99.90
48007;DHT22;33771;48.180;11.400;2022-11-15T07:42:51;1.80;99.90
48007;DHT22;33771;48.180;11.400;2022-11-15T07:45:23;1.90;99.90
48007;DHT22;33771;48.180;11.400;2022-11-15T07:47:49;1.90;99.90
48007;DHT22;33771;48.180;11.400;2022-11-15T07:50:16;2.00;99.90
48007;DHT22;33771;48.180;11.400;2022-11-15T07:52:42;2.00;99.90
48007;DHT22;33771;48.180;11.400;2022-11-15T07:55:08;2.10;99.90
48007;DHT22;33771;48.180;11.400;2022-11-15T07:57:34;2.20;99.90
48007;DHT22;33771;48.180;11.400;2022-11-15T07:59:59;2.30;99.90
48007;DHT22;33771;48.180;11.400;2022-11-15T08:02:25;2.40;99.90
48007;DHT22;33771;48.180;11.400;2022-11-15T08:04:50;2.50;99.90
48007;DHT22;33771;48.180;11.400;2022-11-15T08:07:16;2.60;99.90
48007;DHT22;33771;48.180;11.400;2022-11-15T08:09:41;2.70;99.90
48007;DHT22;33771;48.180;11.400;2022-11-15T08:12:07;2.90;99.90
48007;DHT22;33771;48.180;11.400;2022-11-15T08:14:34;3.10;99.90
48007;DHT22;33771;48.180;11.400;2022-11-15T08:16:59;3.20;99.90
48007;DHT22;33771;48.180;11.400;2022-11-15T08:19:25;3.40;99.90
48007;DHT22;33771;48.180;11.400;2022-11-15T08:21:50;3.50;99.90
48007;DHT22;33771;48.180;11.400;2022-11-15T08:24:16;3.60;99.90
48007;DHT22;33771;48.180;11.400;2022-11-15T08:26:42;3.70;99.90
48007;DHT22;33771;48.180;11.400;2022-11-15T08:29:07;3.90;99.90
48007;DHT22;33771;48.180;11.400;2022-11-15T08:31:34;4.00;99.90
48007;DHT22;33771;48.180;11.400;2022-11-15T08:34:02;4.10;99.90
48007;DHT22;33771;48.180;11.400;2022-11-15T08:36:28;4.10;99.90
48007;DHT22;33771;48.180;11.400;2022-11-15T08:38:53;4.20;99.90
48007;DHT22;33771;48.180;11.400;2022-11-15T08:41:29;4.30;99.90
48007;DHT22;33771;48.180;11.400;2022-11-15T08:43:55;4.40;99.90
48007;DHT22;33771;48.180;11.400;2022-11-15T08:46:21;4.60;99.90
48007;DHT22;33771;48.180;11.400;2022-11-15T08:48:46;4.70;99.90
48007;DHT22;33771;48.180;11.400;2022-11-15T08:51:12;4.80;99.90
48007;DHT22;33771;48.180;11.400;2022-11-15T08:53:37;4.90;99.90
48007;DHT22;33771;48.180;11.400;2022-11-15T08:56:07;5.10;99.90
48007;DHT22;33771;48.180;11.400;2022-11-15T08:58:33;5.10;99.90
48007;DHT22;33771;48.180;11.400;2022-11-15T09:00:58;5.20;99.90
48007;DHT22;33771;48.180;11.400;2022-11-15T09:03:24;5.30;99.90
48007;DHT22;33771;48.180;11.400;2022-11-15T09:05:55;5.50;99.90
48007;DHT22;33771;48.180;11.400;2022-11-15T09:08:21;5.60;99.90
48007;DHT22;33771;48.180;11.400;2022-11-15T09:10:47;5.60;99.90
48007;DHT22;33771;48.180;11.400;2022-11-15T09:13:12;5.70;99.90
48007;DHT22;33771;48.180;11.400;2022-11-15T09:15:39;5.90;99.90
48007;DHT22;33771;48.180;11.400;2022-11-15T09:18:04;6.00;99.90
48007;DHT22;33771;48.180;11.400;2022-11-15T09:20:30;6.10;99.90
48007;DHT22;33771;48.180;11.400;2022-11-15T09:23:00;6.20;99.90
48007;DHT22;33771;48.180;11.400;2022-11-15T09:25:26;6.30;99.90
48007;DHT22;33771;48.180;11.400;2022-11-15T09:27:52;6.40;99.90
48007;DHT22;33771;48.180;11.400;2022-11-15T09:30:17;6.50;99.90
48007;DHT22;33771;48.180;11.400;2022-11-15T09:32:43;6.50;99.90
48007;DHT22;33771;48.180;11.400;2022-11-15T09:35:08;6.70;99.90
48007;DHT22;33771;48.180;11.400;2022-11-15T09:37:34;6.80;99.90
48007;DHT22;33771;48.180;11.400;2022-11-15T09:39:59;6.90;99.90
48007;DHT22;33771;48.180;11.400;2022-11-15T09:45:07;7.10;99.90
48007;DHT22;33771;48.180;11.400;2022-11-15T09:50:51;7.20;99.90
48007;DHT22;33771;48.180;11.400;2022-11-15T09:53:51;7.40;99.90
48007;DHT22;33771;48.180;11.400;2022-11-15T09:56:21;7.50;99.90
48007;DHT22;33771;48.180;11.400;2022-11-15T09:59:00;7.60;99.90
48007;DHT22;33771;48.180;11.400;2022-11-15T10:01:41;7.80;99.90
48007;DHT22;33771;48.180;11.400;2022-11-15T10:04:10;8.10;99.90
48007;DHT22;33771;48.180;11.400;2022-11-15T10:06:40;8.40;99.90
48007;DHT22;33771;48.180;11.400;2022-11-15T10:09:09;8.50;99.90
48007;DHT22;33771;48.180;11.400;2022-11-15T10:11:37;8.70;99.90
48007;DHT22;33771;48.180;11.400;2022-11-15T10:14:17;8.80;99.90
48007;DHT22;33771;48.180;11.400;2022-11-15T10:23:01;8.90;99.90
48007;DHT22;33771;48.180;11.400;2022-11-15T10:25:34;8.90;99.90
48007;DHT22;33771;48.180;11.400;2022-11-15T10:28:25;9.00;99.90
48007;DHT22;33771;48.180;11.400;2022-11-15T10:30:57;9.10;99.90
48007;DHT22;33771;48.180;11.400;2022-11-15T10:41:35;9.30;99.90
48007;DHT22;33771;48.180;11.400;2022-11-15T10:44:02;9.30;99.90
48007;DHT22;33771;48.180;11.400;2022-11-15T10:46:28;9.40;99.90
48007;DHT22;33771;48.180;11.400;2022-11-15T10:51:45;9.60;99.90
48007;DHT22;33771;48.180;11.400;2022-11-15T10:54:15;9.70;99.90
48007;DHT22;33771;48.180;11.400;2022-11-15T10:56:50;9.80;99.90
48007;DHT22;33771;48.180;11.400;2022-11-15T10:59:37;9.90;99.90
48007;DHT22;33771;48.180;11.400;2022-11-15T11:02:27;10.00;99.90
48007;DHT22;33771;48.180;11.400;2022-11-15T11:04:53;10.10;99.90
48007;DHT22;33771;48.180;11.400;2022-11-15T11:07:22;10.20;99.90
48007;DHT22;33771;48.180;11.400;2022-11-15T11:12:51;10.40;99.90
48007;DHT22;33771;48.180;11.400;2022-11-15T11:15:17;10.40;99.90
48007;DHT22;33771;48.180;11.400;2022-11-15T11:18:25;10.50;99.90
48007;DHT22;33771;48.180;11.400;2022-11-15T11:21:00;10.60;99.90
48007;DHT22;33771;48.180;11.400;2022-11-15T11:23:41;10.60;99.90
48007;DHT22;33771;48.180;11.400;2022-11-15T11:29:20;10.90;99.90
48007;DHT22;33771;48.180;11.400;2022-11-15T11:40:34;11.60;99.90
48007;DHT22;33771;48.180;11.400;2022-11-15T11:43:24;11.80;99.90
48007;DHT22;33771;48.180;11.400;2022-11-15T11:48:46;12.10;99.90
48007;DHT22;33771;48.180;11.400;2022-11-15T11:51:30;12.30;99.90
48007;DHT22;33771;48.180;11.400;2022-11-15T11:54:03;12.50;99.90
48007;DHT22;33771;48.180;11.400;2022-11-15T11:56:37;12.80;99.90
48007;DHT22;33771;48.180;11.400;2022-11-15T12:01:52;13.00;99.90
48007;DHT22;33771;48.180;11.400;2022-11-15T12:04:38;13.10;99.90
48007;DHT22;33771;48.180;11.400;2022-11-15T12:07:25;13.20;99.90
48007;DHT22;33771;48.180;11.400;2022-11-15T12:10:01;13.30;99.90
48007;DHT22;33771;48.180;11.400;2022-11-15T12:15:04;13.70;99.90
48007;DHT22;33771;48.180;11.400;2022-11-15T12:17:37;13.80;99.90
48007;DHT22;33771;48.180;11.400;2022-11-15T12:20:15;13.80;99.90
48007;DHT22;33771;48.180;11.400;2022-11-15T12:22:54;13.80;99.90
48007;DHT22;33771;48.180;11.400;2022-11-15T12:28:03;13.80;99.90
48007;DHT22;33771;48.180;11.400;2022-11-15T12:30:45;13.90;99.90
48007;DHT22;33771;48.180;11.400;2022-11-15T12:33:35;13.90;99.90
48007;DHT22;33771;48.180;11.400;2022-11-15T12:36:12;14.00;99.90
48007;DHT22;33771;48.180;11.400;2022-11-15T12:39:02;14.00;99.90
48007;DHT22;33771;48.180;11.400;2022-11-15T12:41:30;14.10;99.90
48007;DHT22;33771;48.180;11.400;2022-11-15T12:43:57;14.10;99.90
48007;DHT22;33771;48.180;11.400;2022-11-15T12:48:59;14.20;99.90
48007;DHT22;33771;48.180;11.400;2022-11-15T12:59:59;14.10;99.90
48007;DHT22;33771;48.180;11.400;2022-11-15T13:02:29;14.10;99.90
48007;DHT22;33771;48.180;11.400;2022-11-15T13:26:09;13.60;99.90
48007;DHT22;33771;48.180;11.400;2022-11-15T13:28:43;13.50;99.90
48007;DHT22;33771;48.180;11.400;2022-11-15T13:33:47;13.50;99.90
48007;DHT22;33771;48.180;11.400;2022-11-15T13:36:18;13.40;99.90
48007;DHT22;33771;48.180;11.400;2022-11-15T13:38:44;13.40;99.90
48007;DHT22;33771;48.180;11.400;2022-11-15T13:41:24;13.40;99.90
48007;DHT22;33771;48.180;11.400;2022-11-15T13:43:51;13.30;99.90
48007;DHT22;33771;48.180;11.400;2022-11-15T13:48:53;13.20;99.90
48007;DHT22;33771;48.180;11.400;2022-11-15T13:51:21;13.20;99.90
48007;DHT22;33771;48.180;11.400;2022-11-15T13:53:54;13.10;99.90
48007;DHT22;33771;48.180;11.400;2022-11-15T13:56:20;12.90;99.90
48007;DHT22;33771;48.180;11.400;2022-11-15T13:58:46;12.90;99.90
48007;DHT22;33771;48.180;11.400;2022-11-15T14:01:17;12.70;99.90
48007;DHT22;33771;48.180;11.400;2022-11-15T14:03:57;12.70;99.90
48007;DHT22;33771;48.180;11.400;2022-11-15T14:06:25;12.60;99.90
48007;DHT22;33771;48.180;11.400;2022-11-15T14:11:36;12.60;99.90
48007;DHT22;33771;48.180;11.400;2022-11-15T14:19:12;12.60;99.90
48007;DHT22;33771;48.180;11.400;2022-11-15T14:22:15;12.50;99.90
48007;DHT22;33771;48.180;11.400;2022-11-15T14:24:45;12.40;99.90
48007;DHT22;33771;48.180;11.400;2022-11-15T14:27:27;12.30;99.90
48007;DHT22;33771;48.180;11.400;2022-11-15T14:29:54;12.20;99.90
48007;DHT22;33771;48.180;11.400;2022-11-15T14:32:22;12.10;99.90
48007;DHT22;33771;48.180;11.400;2022-11-15T14:34:59;12.00;99.90
48007;DHT22;33771;48.180;11.400;2022-11-15T14:37:32;11.90;99.90
48007;DHT22;33771;48.180;11.400;2022-11-15T14:40:04;11.80;99.90
48007;DHT22;33771;48.180;11.400;2022-11-15T14:42:29;11.60;99.90
48007;DHT22;33771;48.180;11.400;2022-11-15T14:44:55;11.50;99.90
48007;DHT22;33771;48.180;11.400;2022-11-15T14:47:21;11.40;99.90
48007;DHT22;33771;48.180;11.400;2022-11-15T14:49:46;11.20;99.90
48007;DHT22;33771;48.180;11.400;2022-11-15T14:52:32;11.10;99.90
48007;DHT22;33771;48.180;11.400;2022-11-15T14:55:08;10.90;99.90
48007;DHT22;33771;48.180;11.400;2022-11-15T14:57:35;10.70;99.90
48007;DHT22;33771;48.180;11.400;2022-11-15T15:00:01;10.60;99.90
48007;DHT22;33771;48.180;11.400;2022-11-15T15:02:27;10.40;99.90
48007;DHT22;33771;48.180;11.400;2022-11-15T15:04:53;10.30;99.90
48007;DHT22;33771;48.180;11.400;2022-11-15T15:07:19;10.20;99.90
48007;DHT22;33771;48.180;11.400;2022-11-15T15:09:45;10.10;99.90
48007;DHT22;33771;48.180;11.400;2022-11-15T15:12:21;10.00;99.90
48007;DHT22;33771;48.180;11.400;2022-11-15T15:14:48;9.90;99.90
48007;DHT22;33771;48.180;11.400;2022-11-15T15:17:15;9.80;99.90
48007;DHT22;33771;48.180;11.400;2022-11-15T15:19:41;9.70;99.90
48007;DHT22;33771;48.180;11.400;2022-11-15T15:22:17;9.60;99.90
48007;DHT22;33771;48.180;11.400;2022-11-15T15:24:44;9.50;99.90
48007;DHT22;33771;48.180;11.400;2022-11-15T15:27:10;9.40;99.90
48007;DHT22;33771;48.180;11.400;2022-11-15T15:29:36;9.30;99.90
48007;DHT22;33771;48.180;11.400;2022-11-15T15:32:02;9.20;99.90
48007;DHT22;33771;48.180;11.400;2022-11-15T15:34:28;9.10;99.90
48007;DHT22;33771;48.180;11.400;2022-11-15T15:37:28;9.00;99.90
48007;DHT22;33771;48.180;11.400;2022-11-15T15:39:54;8.90;99.90
48007;DHT22;33771;48.180;11.400;2022-11-15T15:42:21;8.80;99.90
48007;DHT22;33771;48.180;11.400;2022-11-15T15:44:48;8.70;99.90
48007;DHT22;33771;48.180;11.400;2022-11-15T15:47:16;8.70;99.90
48007;DHT22;33771;48.180;11.400;2022-11-15T15:49:42;8.60;99.90
48007;DHT22;33771;48.180;11.400;2022-11-15T15:52:08;8.60;99.90
48007;DHT22;33771;48.180;11.400;2022-11-15T15:54:33;8.50;99.90
48007;DHT22;33771;48.180;11.400;2022-11-15T15:56:59;8.40;99.90
48007;DHT22;33771;48.180;11.400;2022-11-15T15:59:24;8.40;99.90
48007;DHT22;33771;48.180;11.400;2022-11-15T16:01:50;8.30;99.90
48007;DHT22;33771;48.180;11.400;2022-11-15T16:04:16;8.30;99.90
48007;DHT22;33771;48.180;11.400;2022-11-15T16:06:41;8.20;99.90
48007;DHT22;33771;48.180;11.400;2022-11-15T16:09:17;8.10;99.90
48007;DHT22;33771;48.180;11.400;2022-11-15T16:11:46;8.10;99.90
48007;DHT22;33771;48.180;11.400;2022-11-15T16:14:12;8.10;99.90
48007;DHT22;33771;48.180;11.400;2022-11-15T16:16:38;8.10;99.90
48007;DHT22;33771;48.180;11.400;2022-11-15T16:19:04;8.00;99.90
48007;DHT22;33771;48.180;11.400;2022-11-15T16:21:30;8.00;99.90
48007;DHT22;33771;48.180;11.400;2022-11-15T16:23:55;8.00;99.90
48007;DHT22;33771;48.180;11.400;2022-11-15T16:26:26;7.90;99.90
48007;DHT22;33771;48.180;11.400;2022-11-15T16:28:52;7.90;99.90
48007;DHT22;33771;48.180;11.400;2022-11-15T16:31:18;7.90;99.90
48007;DHT22;33771;48.180;11.400;2022-11-15T16:33:46;7.90;99.90
48007;DHT22;33771;48.180;11.400;2022-11-15T16:36:18;7.90;99.90
48007;DHT22;33771;48.180;11.400;2022-11-15T16:38:44;7.80;99.90
48007;DHT22;33771;48.180;11.400;2022-11-15T16:41:10;7.80;99.90
48007;DHT22;33771;48.180;11.400;2022-11-15T16:43:36;7.70;99.90
48007;DHT22;33771;48.180;11.400;2022-11-15T16:46:12;7.70;99.90
48007;DHT22;33771;48.180;11.400;2022-11-15T16:48:39;7.60;99.90
48007;DHT22;33771;48.180;11.400;2022-11-15T16:51:05;7.60;99.90
48007;DHT22;33771;48.180;11.400;2022-11-15T16:53:30;7.60;99.90
48007;DHT22;33771;48.180;11.400;2022-11-15T16:55:56;7.60;99.90
48007;DHT22;33771;48.180;11.400;2022-11-15T16:58:22;7.50;99.90
48007;DHT22;33771;48.180;11.400;2022-11-15T17:00:52;7.50;99.90
48007;DHT22;33771;48.180;11.400;2022-11-15T17:03:18;7.50;99.90
48007;DHT22;33771;48.180;11.400;2022-11-15T17:05:44;7.50;99.90
48007;DHT22;33771;48.180;11.400;2022-11-15T17:08:09;7.40;99.90
48007;DHT22;33771;48.180;11.400;2022-11-15T17:10:38;7.40;99.90
48007;DHT22;33771;48.180;11.400;2022-11-15T17:13:06;7.30;99.90
48007;DHT22;33771;48.180;11.400;2022-11-15T17:15:32;7.30;99.90
48007;DHT22;33771;48.180;11.400;2022-11-15T17:17:58;7.30;99.90
48007;DHT22;33771;48.180;11.400;2022-11-15T17:20:25;7.30;99.90
48007;DHT22;33771;48.180;11.400;2022-11-15T17:22:51;7.20;99.90
48007;DHT22;33771;48.180;11.400;2022-11-15T17:25:17;7.20;99.90
48007;DHT22;33771;48.180;11.400;2022-11-15T17:27:42;7.20;99.90
48007;DHT22;33771;48.180;11.400;2022-11-15T17:30:11;7.20;99.90
48007;DHT22;33771;48.180;11.400;2022-11-15T17:32:36;7.10;99.90
48007;DHT22;33771;48.180;11.400;2022-11-15T17:35:03;7.10;99.90
48007;DHT22;33771;48.180;11.400;2022-11-15T17:37:31;7.10;99.90
48007;DHT22;33771;48.180;11.400;2022-11-15T17:39:57;7.10;99.90
48007;DHT22;33771;48.180;11.400;2022-11-15T17:42:23;7.10;99.90